Terminal Aerodrome Forecast
Issued by NWS Burlington, VT

Home | Current Version | Previous Version | Text Only | Print | Product List | Glossary On
Versions: 1 2 3 4 5 6 7 8 9 10 11 12 13 14 15 16 17
000
FTUS41 KBTV 280205 AAD
TAFBTV
TAF AMD
KBTV 280205Z 2802/2824 22005KT P6SM VCSH BKN060
      TEMPO 2802/2803 2SM SHRA BKN025
     FM280500 00000KT P6SM OVC030
     FM280900 VRB03KT P6SM OVC035
     FM281400 34005KT P6SM SCT100=

USA.gov is the U.S. government's official web portal to all federal, state and local government web resources and services.